sensor_id;sensor_type;location;lat;lon;timestamp;pressure;altitude;pressure_sealevel;temperature;humidity
18813;BME280;9534;51.140;6.296;2023-11-19T00:03:33;68097.91;;;12.47;100.00
18813;BME280;9534;51.140;6.296;2023-11-19T00:07:45;68119.06;;;12.56;100.00
18813;BME280;9534;51.140;6.296;2023-11-19T00:11:49;68117.06;;;12.59;100.00
18813;BME280;9534;51.140;6.296;2023-11-19T00:15:59;68121.66;;;12.63;100.00
18813;BME280;9534;51.140;6.296;2023-11-19T00:20:02;68131.94;;;12.72;100.00
18813;BME280;9534;51.140;6.296;2023-11-19T00:24:07;68138.09;;;12.75;100.00
18813;BME280;9534;51.140;6.296;2023-11-19T00:28:12;68140.38;;;12.77;100.00
18813;BME280;9534;51.140;6.296;2023-11-19T00:32:15;68140.22;;;12.74;100.00
18813;BME280;9534;51.140;6.296;2023-11-19T00:36:18;68127.06;;;12.72;100.00
18813;BME280;9534;51.140;6.296;2023-11-19T00:40:22;68150.09;;;12.85;100.00
18813;BME280;9534;51.140;6.296;2023-11-19T00:44:26;68148.41;;;12.84;100.00
18813;BME280;9534;51.140;6.296;2023-11-19T00:48:29;68147.94;;;12.86;100.00
18813;BME280;9534;51.140;6.296;2023-11-19T00:52:33;68153.38;;;12.86;100.00
18813;BME280;9534;51.140;6.296;2023-11-19T00:56:38;68157.09;;;12.94;100.00
18813;BME280;9534;51.140;6.296;2023-11-19T01:00:57;68153.09;;;12.90;100.00
18813;BME280;9534;51.140;6.296;2023-11-19T01:05:01;68153.66;;;12.91;100.00
18813;BME280;9534;51.140;6.296;2023-11-19T01:09:04;68150.94;;;12.91;100.00
18813;BME280;9534;51.140;6.296;2023-11-19T01:13:09;68161.41;;;12.93;100.00
18813;BME280;9534;51.140;6.296;2023-11-19T01:17:20;68157.09;;;12.94;100.00
18813;BME280;9534;51.140;6.296;2023-11-19T01:21:23;68162.09;;;12.96;100.00
18813;BME280;9534;51.140;6.296;2023-11-19T01:25:26;68165.13;;;13.01;100.00
18813;BME280;9534;51.140;6.296;2023-11-19T01:29:29;68168.25;;;12.99;100.00
18813;BME280;9534;51.140;6.296;2023-11-19T01:33:33;68169.56;;;13.02;100.00
18813;BME280;9534;51.140;6.296;2023-11-19T01:37:36;68169.69;;;13.05;100.00
18813;BME280;9534;51.140;6.296;2023-11-19T01:41:39;68181.72;;;13.15;100.00
18813;BME280;9534;51.140;6.296;2023-11-19T01:45:43;68191.44;;;13.24;100.00
18813;BME280;9534;51.140;6.296;2023-11-19T01:49:48;68194.88;;;13.27;100.00
18813;BME280;9534;51.140;6.296;2023-11-19T01:53:53;68207.31;;;13.35;100.00
18813;BME280;9534;51.140;6.296;2023-11-19T01:57:57;68194.28;;;13.36;100.00
18813;BME280;9534;51.140;6.296;2023-11-19T02:02:02;68209.19;;;13.39;100.00
18813;BME280;9534;51.140;6.296;2023-11-19T02:06:07;68202.03;;;13.38;100.00
18813;BME280;9534;51.140;6.296;2023-11-19T02:10:13;68206.34;;;13.37;100.00
18813;BME280;9534;51.140;6.296;2023-11-19T02:14:18;68205.63;;;13.34;100.00
18813;BME280;9534;51.140;6.296;2023-11-19T02:18:25;68204.75;;;13.38;100.00
18813;BME280;9534;51.140;6.296;2023-11-19T02:22:31;68190.03;;;13.27;100.00
18813;BME280;9534;51.140;6.296;2023-11-19T02:26:37;68196.47;;;13.26;100.00
18813;BME280;9534;51.140;6.296;2023-11-19T02:30:50;68194.19;;;13.24;100.00
18813;BME280;9534;51.140;6.296;2023-11-19T02:34:57;68204.59;;;13.35;100.00
18813;BME280;9534;51.140;6.296;2023-11-19T02:39:08;68211.34;;;13.39;100.00
18813;BME280;9534;51.140;6.296;2023-11-19T02:43:14;68216.63;;;13.46;100.00
18813;BME280;9534;51.140;6.296;2023-11-19T02:47:18;68210.47;;;13.43;100.00
18813;BME280;9534;51.140;6.296;2023-11-19T02:51:23;68197.44;;;13.34;100.00
18813;BME280;9534;51.140;6.296;2023-11-19T02:55:26;68218.94;;;13.48;100.00
18813;BME280;9534;51.140;6.296;2023-11-19T02:59:33;68223.50;;;13.52;100.00
18813;BME280;9534;51.140;6.296;2023-11-19T03:03:42;68221.22;;;13.50;100.00
18813;BME280;9534;51.140;6.296;2023-11-19T03:07:45;68226.94;;;13.55;100.00
18813;BME280;9534;51.140;6.296;2023-11-19T03:11:50;68223.78;;;13.57;100.00
18813;BME280;9534;51.140;6.296;2023-11-19T03:15:53;68228.38;;;13.60;100.00
18813;BME280;9534;51.140;6.296;2023-11-19T03:19:58;68231.53;;;13.58;100.00
18813;BME280;9534;51.140;6.296;2023-11-19T03:24:01;68219.22;;;13.53;100.00
18813;BME280;9534;51.140;6.296;2023-11-19T03:28:04;68226.94;;;13.55;100.00
18813;BME280;9534;51.140;6.296;2023-11-19T03:32:09;68223.50;;;13.52;100.00
18813;BME280;9534;51.140;6.296;2023-11-19T03:36:15;68233.81;;;13.60;100.00
18813;BME280;9534;51.140;6.296;2023-11-19T03:40:18;68223.94;;;13.50;100.00
18813;BME280;9534;51.140;6.296;2023-11-19T03:44:21;68209.78;;;13.40;100.00
18813;BME280;9534;51.140;6.296;2023-11-19T03:48:25;68198.03;;;13.25;100.00
18813;BME280;9534;51.140;6.296;2023-11-19T03:52:29;68195.19;;;13.22;100.00
18813;BME280;9534;51.140;6.296;2023-11-19T03:56:44;68167.41;;;13.03;100.00
18813;BME280;9534;51.140;6.296;2023-11-19T04:00:47;68154.81;;;12.92;100.00
18813;BME280;9534;51.140;6.296;2023-11-19T04:04:51;68151.81;;;12.87;100.00
18813;BME280;9534;51.140;6.296;2023-11-19T04:08:56;68138.81;;;12.78;100.00
18813;BME280;9534;51.140;6.296;2023-11-19T04:12:59;68135.22;;;12.72;100.00
18813;BME280;9534;51.140;6.296;2023-11-19T04:17:03;68142.25;;;12.81;100.00
18813;BME280;9534;51.140;6.296;2023-11-19T04:21:06;68137.09;;;12.76;100.00
18813;BME280;9534;51.140;6.296;2023-11-19T04:25:10;68154.69;;;12.89;100.00
18813;BME280;9534;51.140;6.296;2023-11-19T04:29:14;68160.53;;;12.97;100.00
18813;BME280;9534;51.140;6.296;2023-11-19T04:33:19;68164.81;;;12.96;100.00
18813;BME280;9534;51.140;6.296;2023-11-19T04:37:22;68169.69;;;13.05;100.00
18813;BME280;9534;51.140;6.296;2023-11-19T04:41:27;68169.41;;;13.09;100.00
18813;BME280;9534;51.140;6.296;2023-11-19T04:45:33;68172.00;;;13.07;100.00
18813;BME280;9534;51.140;6.296;2023-11-19T04:49:39;68169.69;;;13.05;100.00
18813;BME280;9534;51.140;6.296;2023-11-19T04:53:44;68164.81;;;12.96;100.00
18813;BME280;9534;51.140;6.296;2023-11-19T04:57:48;68154.81;;;12.92;100.00
18813;BME280;9534;51.140;6.296;2023-11-19T05:01:51;68153.09;;;12.90;100.00
18813;BME280;9534;51.140;6.296;2023-11-19T05:05:54;68143.94;;;12.82;100.00
18813;BME280;9534;51.140;6.296;2023-11-19T05:09:57;68139.09;;;12.83;100.00
18813;BME280;9534;51.140;6.296;2023-11-19T05:14:05;68156.25;;;12.88;100.00
18813;BME280;9534;51.140;6.296;2023-11-19T05:18:08;68139.25;;;12.76;100.00
18813;BME280;9534;51.140;6.296;2023-11-19T05:22:11;68147.38;;;12.85;100.00
18813;BME280;9534;51.140;6.296;2023-11-19T05:26:18;68143.09;;;12.86;100.00
18813;BME280;9534;51.140;6.296;2023-11-19T05:30:22;68149.97;;;12.83;100.00
18813;BME280;9534;51.140;6.296;2023-11-19T05:34:27;68148.41;;;12.84;100.00
18813;BME280;9534;51.140;6.296;2023-11-19T05:38:31;68144.22;;;12.87;100.00
18813;BME280;9534;51.140;6.296;2023-11-19T05:42:34;68153.09;;;12.90;100.00
18813;BME280;9534;51.140;6.296;2023-11-19T05:46:39;68148.66;;;12.89;100.00
18813;BME280;9534;51.140;6.296;2023-11-19T05:50:44;68144.78;;;12.88;100.00
18813;BME280;9534;51.140;6.296;2023-11-19T05:54:47;68130.81;;;12.71;100.00
18813;BME280;9534;51.140;6.296;2023-11-19T05:58:53;68124.94;;;12.63;100.00
18813;BME280;9534;51.140;6.296;2023-11-19T06:02:58;68134.09;;;12.71;100.00
18813;BME280;9534;51.140;6.296;2023-11-19T06:07:02;68127.38;;;12.68;100.00
18813;BME280;9534;51.140;6.296;2023-11-19T06:11:05;68126.66;;;12.65;100.00
18813;BME280;9534;51.140;6.296;2023-11-19T06:15:09;68114.06;;;12.54;100.00
18813;BME280;9534;51.140;6.296;2023-11-19T06:19:14;68099.19;;;12.41;100.00
18813;BME280;9534;51.140;6.296;2023-11-19T06:23:18;68086.19;;;12.32;100.00
18813;BME280;9534;51.140;6.296;2023-11-19T06:27:21;68079.75;;;12.24;100.00
18813;BME280;9534;51.140;6.296;2023-11-19T06:31:25;68073.19;;;12.23;100.00
18813;BME280;9534;51.140;6.296;2023-11-19T06:35:29;68075.63;;;12.18;100.00
18813;BME280;9534;51.140;6.296;2023-11-19T06:39:38;68055.91;;;12.06;100.00
18813;BME280;9534;51.140;6.296;2023-11-19T06:43:42;68057.31;;;12.02;100.00
18813;BME280;9534;51.140;6.296;2023-11-19T06:47:46;68057.31;;;12.02;100.00
18813;BME280;9534;51.140;6.296;2023-11-19T06:51:51;68062.03;;;12.09;100.00
18813;BME280;9534;51.140;6.296;2023-11-19T06:55:54;68049.59;;;12.00;100.00
18813;BME280;9534;51.140;6.296;2023-11-19T06:59:58;68045.91;;;11.92;100.00
18813;BME280;9534;51.140;6.296;2023-11-19T07:04:02;68031.47;;;11.87;100.00
18813;BME280;9534;51.140;6.296;2023-11-19T07:08:12;68035.03;;;11.92;100.00
18813;BME280;9534;51.140;6.296;2023-11-19T07:12:15;68030.19;;;11.83;100.00
18813;BME280;9534;51.140;6.296;2023-11-19T07:16:19;68037.19;;;11.92;100.00
18813;BME280;9534;51.140;6.296;2023-11-19T07:20:23;68049.91;;;11.96;100.00
18813;BME280;9534;51.140;6.296;2023-11-19T07:24:30;68046.19;;;11.97;100.00
18813;BME280;9534;51.140;6.296;2023-11-19T07:28:33;68048.31;;;11.97;100.00
18813;BME280;9534;51.140;6.296;2023-11-19T07:32:36;68049.91;;;11.96;100.00
18813;BME280;9534;51.140;6.296;2023-11-19T07:36:41;68052.78;;;11.98;100.00
18813;BME280;9534;51.140;6.296;2023-11-19T07:40:45;68059.19;;;12.06;100.00
18813;BME280;9534;51.140;6.296;2023-11-19T07:44:52;68058.03;;;12.05;100.00
18813;BME280;9534;51.140;6.296;2023-11-19T07:48:56;68070.19;;;12.18;100.00
18813;BME280;9534;51.140;6.296;2023-11-19T07:52:59;68083.19;;;12.27;100.00
18813;BME280;9534;51.140;6.296;2023-11-19T07:57:05;68083.03;;;12.34;100.00
18813;BME280;9534;51.140;6.296;2023-11-19T08:01:08;68093.63;;;12.38;100.00
18813;BME280;9534;51.140;6.296;2023-11-19T08:05:12;68100.03;;;12.46;100.00
18813;BME280;9534;51.140;6.296;2023-11-19T08:09:15;68113.63;;;12.56;100.00
18813;BME280;9534;51.140;6.296;2023-11-19T08:13:21;68128.22;;;12.73;100.00
18813;BME280;9534;51.140;6.296;2023-11-19T08:17:24;68146.81;;;12.85;100.00
18813;BME280;9534;51.140;6.296;2023-11-19T08:21:31;68149.53;;;12.85;100.00
18813;BME280;9534;51.140;6.296;2023-11-19T08:25:34;68170.28;;;13.05;100.00
18813;BME280;9534;51.140;6.296;2023-11-19T08:29:39;68180.00;;;13.14;100.00
18813;BME280;9534;51.140;6.296;2023-11-19T08:33:43;68183.44;;;13.17;100.00
18813;BME280;9534;51.140;6.296;2023-11-19T08:37:46;68184.47;;;13.15;100.00
18813;BME280;9534;51.140;6.296;2023-11-19T08:41:49;68199.78;;;13.26;100.00
18813;BME280;9534;51.140;6.296;2023-11-19T08:45:53;68170.56;;;13.10;100.00
18813;BME280;9534;51.140;6.296;2023-11-19T08:49:56;68188.00;;;13.21;100.00
18813;BME280;9534;51.140;6.296;2023-11-19T08:54:03;68202.19;;;13.31;100.00
18813;BME280;9534;51.140;6.296;2023-11-19T08:58:06;68203.47;;;13.34;100.00
18813;BME280;9534;51.140;6.296;2023-11-19T09:02:14;68215.50;;;13.45;100.00
18813;BME280;9534;51.140;6.296;2023-11-19T09:06:17;68230.94;;;13.58;100.00
18813;BME280;9534;51.140;6.296;2023-11-19T09:10:20;68205.75;;;13.36;100.00
18813;BME280;9534;51.140;6.296;2023-11-19T09:14:24;68199.47;;;13.31;100.00
18813;BME280;9534;51.140;6.296;2023-11-19T09:18:29;68204.03;;;13.35;100.00
18813;BME280;9534;51.140;6.296;2023-11-19T09:22:32;68229.09;;;13.54;100.00
18813;BME280;9534;51.140;6.296;2023-11-19T09:26:35;68200.88;;;13.37;100.00
18813;BME280;9534;51.140;6.296;2023-11-19T09:30:42;68199.47;;;13.31;100.00
18813;BME280;9534;51.140;6.296;2023-11-19T09:34:46;68221.22;;;13.50;100.00
18813;BME280;9534;51.140;6.296;2023-11-19T09:38:50;68223.63;;;13.54;100.00
18813;BME280;9534;51.140;6.296;2023-11-19T09:42:53;68215.50;;;13.45;100.00
18813;BME280;9534;51.140;6.296;2023-11-19T09:46:57;68262.41;;;13.85;100.00
18813;BME280;9534;51.140;6.296;2023-11-19T09:51:03;68297.94;;;14.16;100.00
18813;BME280;9534;51.140;6.296;2023-11-19T09:55:07;68318.56;;;14.34;100.00
18813;BME280;9534;51.140;6.296;2023-11-19T09:59:10;68300.09;;;14.25;100.00
18813;BME280;9534;51.140;6.296;2023-11-19T10:03:14;68261.72;;;13.82;100.00
18813;BME280;9534;51.140;6.296;2023-11-19T10:07:20;68220.06;;;13.49;100.00
18813;BME280;9534;51.140;6.296;2023-11-19T10:11:28;68247.53;;;13.72;100.00
18813;BME280;9534;51.140;6.296;2023-11-19T10:15:33;68243.41;;;13.66;100.00
18813;BME280;9534;51.140;6.296;2023-11-19T10:19:39;68230.06;;;13.62;100.00
18813;BME280;9534;51.140;6.296;2023-11-19T10:23:48;68257.56;;;13.76;100.00
18813;BME280;9534;51.140;6.296;2023-11-19T10:27:53;68300.22;;;14.18;100.00
18813;BME280;9534;51.140;6.296;2023-11-19T10:31:57;68325.72;;;14.45;100.00
18813;BME280;9534;51.140;6.296;2023-11-19T10:36:20;68302.22;;;14.25;100.00
18813;BME280;9534;51.140;6.296;2023-11-19T10:40:38;68254.41;;;13.78;100.00
18813;BME280;9534;51.140;6.296;2023-11-19T10:44:42;68232.09;;;13.59;100.00
18813;BME280;9534;51.140;6.296;2023-11-19T10:48:45;68231.53;;;13.58;100.00
18813;BME280;9534;51.140;6.296;2023-11-19T10:52:48;68231.81;;;13.63;100.00
18813;BME280;9534;51.140;6.296;2023-11-19T10:56:58;68263.56;;;13.86;100.00
18813;BME280;9534;51.140;6.296;2023-11-19T11:01:02;68312.41;;;14.31;100.00
18813;BME280;9534;51.140;6.296;2023-11-19T11:05:12;68350.09;;;14.62;100.00
18813;BME280;9534;51.140;6.296;2023-11-19T11:09:17;68334.91;;;14.53;100.00
18813;BME280;9534;51.140;6.296;2023-11-19T11:13:22;68351.34;;;14.65;100.00
18813;BME280;9534;51.140;6.296;2023-11-19T11:17:25;68344.78;;;14.55;100.00
18813;BME280;9534;51.140;6.296;2023-11-19T11:21:31;68377.59;;;14.85;100.00
18813;BME280;9534;51.140;6.296;2023-11-19T11:25:36;68388.91;;;14.93;100.00
18813;BME280;9534;51.140;6.296;2023-11-19T11:29:47;68411.97;;;15.15;100.00
18813;BME280;9534;51.140;6.296;2023-11-19T11:33:59;68334.91;;;14.53;100.00
18813;BME280;9534;51.140;6.296;2023-11-19T11:38:08;68275.28;;;14.01;100.00
18813;BME280;9534;51.140;6.296;2023-11-19T11:50:57;68335.19;;;14.49;100.00
18813;BME280;9534;51.140;6.296;2023-11-19T11:55:04;68326.00;;;14.41;100.00
18813;BME280;9534;51.140;6.296;2023-11-19T11:59:16;68300.78;;;14.19;100.00
18813;BME280;9534;51.140;6.296;2023-11-19T12:03:21;68331.63;;;14.43;100.00
18813;BME280;9534;51.140;6.296;2023-11-19T12:07:26;68292.91;;;14.14;100.00
18813;BME280;9534;51.140;6.296;2023-11-19T12:11:28;68285.06;;;14.00;100.00
18813;BME280;9534;51.140;6.296;2023-11-19T12:15:34;68202.03;;;13.28;100.00
18813;BME280;9534;51.140;6.296;2023-11-19T12:19:58;68135.09;;;12.70;100.00
18813;BME280;9534;51.140;6.296;2023-11-19T12:24:04;68127.38;;;12.68;100.00
18813;BME280;9534;51.140;6.296;2023-11-19T12:28:11;68143.09;;;12.86;100.00
18813;BME280;9534;51.140;6.296;2023-11-19T12:32:14;68210.91;;;13.41;100.00
18813;BME280;9534;51.140;6.296;2023-11-19T12:36:17;68209.34;;;13.42;100.00
18813;BME280;9534;51.140;6.296;2023-11-19T12:40:22;68189.16;;;13.22;100.00
18813;BME280;9534;51.140;6.296;2023-11-19T12:44:25;68280.19;;;14.01;100.00
18813;BME280;9534;51.140;6.296;2023-11-19T12:48:28;68292.03;;;14.18;100.00
18813;BME280;9534;51.140;6.296;2023-11-19T12:52:32;68331.19;;;14.45;100.00
18813;BME280;9534;51.140;6.296;2023-11-19T12:56:36;68378.88;;;14.89;100.00
18813;BME280;9534;51.140;6.296;2023-11-19T13:00:39;68383.63;;;14.86;100.00
18813;BME280;9534;51.140;6.296;2023-11-19T13:04:43;68413.69;;;15.17;100.00
18813;BME280;9534;51.140;6.296;2023-11-19T13:08:46;68375.00;;;14.88;100.00
18813;BME280;9534;51.140;6.296;2023-11-19T13:13:03;68411.41;;;15.15;100.00
18813;BME280;9534;51.140;6.296;2023-11-19T13:17:08;68391.91;;;14.98;100.00
18813;BME280;9534;51.140;6.296;2023-11-19T13:21:11;68343.22;;;14.56;100.00
18813;BME280;9534;51.140;6.296;2023-11-19T13:25:15;68301.81;;;14.17;100.00
18813;BME280;9534;51.140;6.296;2023-11-19T13:29:19;68252.53;;;13.74;100.00
18813;BME280;9534;51.140;6.296;2023-11-19T13:33:22;68224.22;;;13.55;100.00
18813;BME280;9534;51.140;6.296;2023-11-19T13:37:25;68225.53;;;13.49;100.00
18813;BME280;9534;51.140;6.296;2023-11-19T13:41:28;68207.91;;;13.36;100.00
18813;BME280;9534;51.140;6.296;2023-11-19T13:45:33;68195.75;;;13.23;100.00
18813;BME280;9534;51.140;6.296;2023-11-19T13:49:36;68156.81;;;12.89;100.00
18813;BME280;9534;51.140;6.296;2023-11-19T13:53:39;68125.06;;;12.66;100.00
18813;BME280;9534;51.140;6.296;2023-11-19T13:57:46;68116.06;;;12.51;100.00
18813;BME280;9534;51.140;6.296;2023-11-19T14:01:51;68076.91;;;12.22;100.00
18813;BME280;9534;51.140;6.296;2023-11-19T14:05:55;68049.16;;;12.02;100.00
18813;BME280;9534;51.140;6.296;2023-11-19T14:10:00;68046.88;;;12.00;100.00
18813;BME280;9534;51.140;6.296;2023-11-19T14:14:03;68067.59;;;12.11;100.00
18813;BME280;9534;51.140;6.296;2023-11-19T14:18:08;68077.31;;;12.29;100.00
18813;BME280;9534;51.140;6.296;2023-11-19T14:22:11;68104.78;;;12.43;100.00
18813;BME280;9534;51.140;6.296;2023-11-19T14:26:14;68111.06;;;12.58;100.00
18813;BME280;9534;51.140;6.296;2023-11-19T14:30:17;68136.25;;;12.71;100.00
18813;BME280;9534;51.140;6.296;2023-11-19T14:34:21;68143.94;;;12.82;100.00
18813;BME280;9534;51.140;6.296;2023-11-19T14:38:24;68155.25;;;12.90;100.00
18813;BME280;9534;51.140;6.296;2023-11-19T14:42:27;68126.22;;;12.67;100.00
18813;BME280;9534;51.140;6.296;2023-11-19T14:46:30;68062.03;;;12.09;100.00
18813;BME280;9534;51.140;6.296;2023-11-19T14:50:35;68030.19;;;11.83;100.00
18813;BME280;9534;51.140;6.296;2023-11-19T14:54:38;68001.47;;;11.56;100.00
18813;BME280;9534;51.140;6.296;2023-11-19T14:58:41;67999.44;;;11.49;100.00
18813;BME280;9534;51.140;6.296;2023-11-19T15:02:46;68001.31;;;11.53;100.00
18813;BME280;9534;51.140;6.296;2023-11-19T15:06:51;68003.44;;;11.62;100.00
18813;BME280;9534;51.140;6.296;2023-11-19T15:10:54;68005.03;;;11.61;100.00
18813;BME280;9534;51.140;6.296;2023-11-19T15:14:59;68007.59;;;11.68;100.00
18813;BME280;9534;51.140;6.296;2023-11-19T15:19:02;68009.63;;;11.65;100.00
18813;BME280;9534;51.140;6.296;2023-11-19T15:23:07;68008.28;;;11.62;100.00
18813;BME280;9534;51.140;6.296;2023-11-19T15:27:11;68013.03;;;11.68;100.00
18813;BME280;9534;51.140;6.296;2023-11-19T15:31:15;68024.31;;;11.76;100.00
18813;BME280;9534;51.140;6.296;2023-11-19T15:35:18;68050.75;;;12.01;100.00
18813;BME280;9534;51.140;6.296;2023-11-19T15:39:23;68049.03;;;12.00;100.00
18813;BME280;9534;51.140;6.296;2023-11-19T15:43:28;68050.75;;;12.01;100.00
18813;BME280;9534;51.140;6.296;2023-11-19T15:47:31;68032.75;;;11.90;100.00
18813;BME280;9534;51.140;6.296;2023-11-19T15:51:35;68022.19;;;11.76;100.00
18813;BME280;9534;51.140;6.296;2023-11-19T15:55:39;68005.56;;;11.62;100.00
18813;BME280;9534;51.140;6.296;2023-11-19T15:59:42;67995.72;;;11.60;100.00
18813;BME280;9534;51.140;6.296;2023-11-19T16:03:45;68013.75;;;11.71;100.00
18813;BME280;9534;51.140;6.296;2023-11-19T16:07:51;68030.75;;;11.84;100.00
18813;BME280;9534;51.140;6.296;2023-11-19T16:11:56;68034.19;;;11.87;100.00
18813;BME280;9534;51.140;6.296;2023-11-19T16:15:59;68041.47;;;11.91;100.00
18813;BME280;9534;51.140;6.296;2023-11-19T16:20:02;68053.03;;;12.03;100.00
18813;BME280;9534;51.140;6.296;2023-11-19T16:24:09;68064.47;;;12.13;100.00
18813;BME280;9534;51.140;6.296;2023-11-19T16:28:13;68077.31;;;12.29;100.00
18813;BME280;9534;51.140;6.296;2023-11-19T16:32:19;68104.34;;;12.45;100.00
18813;BME280;9534;51.140;6.296;2023-11-19T16:36:22;68120.34;;;12.59;100.00
18813;BME280;9534;51.140;6.296;2023-11-19T16:40:25;68112.63;;;12.57;100.00
18813;BME280;9534;51.140;6.296;2023-11-19T16:44:30;68112.78;;;12.60;100.00
18813;BME280;9534;51.140;6.296;2023-11-19T16:48:33;68117.34;;;12.64;100.00
18813;BME280;9534;51.140;6.296;2023-11-19T16:52:36;68125.50;;;12.64;100.00
18813;BME280;9534;51.140;6.296;2023-11-19T16:56:40;68105.47;;;12.46;100.00
18813;BME280;9534;51.140;6.296;2023-11-19T17:00:46;68090.19;;;12.35;100.00
18813;BME280;9534;51.140;6.296;2023-11-19T17:04:49;68115.06;;;12.52;100.00
18813;BME280;9534;51.140;6.296;2023-11-19T17:08:51;68124.53;;;12.56;100.00
18813;BME280;9534;51.140;6.296;2023-11-19T17:12:54;68116.34;;;12.56;100.00
18813;BME280;9534;51.140;6.296;2023-11-19T17:16:59;68126.34;;;12.69;100.00
18813;BME280;9534;51.140;6.296;2023-11-19T17:21:02;68136.94;;;12.74;100.00
18813;BME280;9534;51.140;6.296;2023-11-19T17:25:06;68108.78;;;12.47;100.00
18813;BME280;9534;51.140;6.296;2023-11-19T17:29:12;68076.75;;;12.29;100.00
18813;BME280;9534;51.140;6.296;2023-11-19T17:33:18;68092.50;;;12.37;100.00
18813;BME280;9534;51.140;6.296;2023-11-19T17:37:21;68103.19;;;12.44;100.00
18813;BME280;9534;51.140;6.296;2023-11-19T17:41:24;68103.34;;;12.47;100.00
18813;BME280;9534;51.140;6.296;2023-11-19T17:45:28;68107.91;;;12.51;100.00
18813;BME280;9534;51.140;6.296;2023-11-19T17:49:33;68118.78;;;12.60;100.00
18813;BME280;9534;51.140;6.296;2023-11-19T17:53:36;68112.34;;;12.52;100.00
18813;BME280;9534;51.140;6.296;2023-11-19T17:57:40;68077.78;;;12.18;100.00
18813;BME280;9534;51.140;6.296;2023-11-19T18:01:43;68046.03;;;11.95;100.00
18813;BME280;9534;51.140;6.296;2023-11-19T18:05:47;68006.72;;;11.63;100.00
18813;BME280;9534;51.140;6.296;2023-11-19T18:09:51;67985.31;;;11.39;100.00
18813;BME280;9534;51.140;6.296;2023-11-19T18:13:54;67972.19;;;11.28;100.00
18813;BME280;9534;51.140;6.296;2023-11-19T18:17:59;67969.47;;;11.28;100.00
18813;BME280;9534;51.140;6.296;2023-11-19T18:22:03;67968.31;;;11.27;100.00
18813;BME280;9534;51.140;6.296;2023-11-19T18:26:07;67965.88;;;11.22;100.00
18813;BME280;9534;51.140;6.296;2023-11-19T18:30:10;67963.59;;;11.20;100.00
18813;BME280;9534;51.140;6.296;2023-11-19T18:34:16;67944.91;;;11.07;100.00
18813;BME280;9534;51.140;6.296;2023-11-19T18:38:21;67929.63;;;10.96;100.00
18813;BME280;9534;51.140;6.296;2023-11-19T18:42:43;67918.50;;;10.91;100.00
18813;BME280;9534;51.140;6.296;2023-11-19T18:46:47;67923.22;;;10.88;100.00
18813;BME280;9534;51.140;6.296;2023-11-19T18:50:50;67935.78;;;10.99;100.00
18813;BME280;9534;51.140;6.296;2023-11-19T18:54:55;67934.75;;;11.00;100.00
18813;BME280;9534;51.140;6.296;2023-11-19T18:58:59;67952.19;;;11.10;100.00
18813;BME280;9534;51.140;6.296;2023-11-19T19:03:02;67973.19;;;11.36;100.00
18813;BME280;9534;51.140;6.296;2023-11-19T19:07:06;67986.44;;;11.40;100.00
18813;BME280;9534;51.140;6.296;2023-11-19T19:11:11;67978.44;;;11.33;100.00
18813;BME280;9534;51.140;6.296;2023-11-19T19:15:15;67974.59;;;11.32;100.00
18813;BME280;9534;51.140;6.296;2023-11-19T19:19:20;67949.91;;;11.18;100.00
18813;BME280;9534;51.140;6.296;2023-11-19T19:23:23;67954.06;;;11.14;100.00
18813;BME280;9534;51.140;6.296;2023-11-19T19:27:27;67944.91;;;11.07;100.00
18813;BME280;9534;51.140;6.296;2023-11-19T19:31:30;67938.78;;;11.04;100.00
18813;BME280;9534;51.140;6.296;2023-11-19T19:35:33;67941.06;;;11.06;100.00
18813;BME280;9534;51.140;6.296;2023-11-19T19:39:37;67941.06;;;11.06;100.00
18813;BME280;9534;51.140;6.296;2023-11-19T19:43:42;67939.50;;;11.07;100.00
18813;BME280;9534;51.140;6.296;2023-11-19T19:47:45;67946.63;;;11.08;100.00
18813;BME280;9534;51.140;6.296;2023-11-19T19:51:48;67941.63;;;11.06;100.00
18813;BME280;9534;51.140;6.296;2023-11-19T19:55:52;67939.34;;;11.04;100.00
18813;BME280;9534;51.140;6.296;2023-11-19T19:59:57;67939.50;;;11.07;100.00
18813;BME280;9534;51.140;6.296;2023-11-19T20:04:00;67943.06;;;11.03;100.00
18813;BME280;9534;51.140;6.296;2023-11-19T20:08:04;67935.78;;;10.99;100.00
18813;BME280;9534;51.140;6.296;2023-11-19T20:12:08;67935.34;;;11.01;100.00
18813;BME280;9534;51.140;6.296;2023-11-19T20:16:12;67945.91;;;11.05;100.00
18813;BME280;9534;51.140;6.296;2023-11-19T20:20:15;67935.63;;;11.06;100.00
18813;BME280;9534;51.140;6.296;2023-11-19T20:24:18;67943.34;;;11.08;100.00
18813;BME280;9534;51.140;6.296;2023-11-19T20:28:21;67951.06;;;11.09;100.00
18813;BME280;9534;51.140;6.296;2023-11-19T20:32:26;67948.47;;;11.12;100.00
18813;BME280;9534;51.140;6.296;2023-11-19T20:36:29;67946.34;;;11.12;100.00
18813;BME280;9534;51.140;6.296;2023-11-19T20:40:32;67943.34;;;11.08;100.00
18813;BME280;9534;51.140;6.296;2023-11-19T20:44:35;67945.91;;;11.05;100.00
18813;BME280;9534;51.140;6.296;2023-11-19T20:48:40;67941.91;;;11.02;100.00
18813;BME280;9534;51.140;6.296;2023-11-19T20:52:43;67935.34;;;11.01;100.00
18813;BME280;9534;51.140;6.296;2023-11-19T20:56:46;67930.78;;;10.97;100.00
18813;BME280;9534;51.140;6.296;2023-11-19T21:00:49;67935.06;;;10.96;100.00
18813;BME280;9534;51.140;6.296;2023-11-19T21:04:53;67932.78;;;10.94;100.00
18813;BME280;9534;51.140;6.296;2023-11-19T21:08:56;67920.19;;;10.92;100.00
18813;BME280;9534;51.140;6.296;2023-11-19T21:12:59;67930.06;;;10.94;100.00
18813;BME280;9534;51.140;6.296;2023-11-19T21:17:03;67933.91;;;10.95;100.00
18813;BME280;9534;51.140;6.296;2023-11-19T21:21:09;67926.22;;;10.93;100.00
18813;BME280;9534;51.140;6.296;2023-11-19T21:25:12;67931.22;;;10.95;100.00
18813;BME280;9534;51.140;6.296;2023-11-19T21:29:15;67933.91;;;10.95;100.00
18813;BME280;9534;51.140;6.296;2023-11-19T21:33:18;67931.22;;;10.95;100.00
18813;BME280;9534;51.140;6.296;2023-11-19T21:37:23;67935.19;;;10.98;100.00
18813;BME280;9534;51.140;6.296;2023-11-19T21:41:26;67932.47;;;10.98;100.00
18813;BME280;9534;51.140;6.296;2023-11-19T21:45:29;67942.63;;;11.05;100.00